Terminal Aerodrome Forecast
Issued by NWS

Home | Current Version | Previous Version | Text Only | Print | Product List | Glossary On
Versions: 1 2 3 4 5 6 7 8 9 10 11 12 13 14 15 16 17 18 19 20 21 22 23 24 25
897
FTUS43 KIND 240539 AAA
TAFHUF
TAF AMD
KHUF 240539Z 2406/2506 35006KT P6SM -RA BKN007 OVC080
     FM241000 05007KT 4SM SHRA OVC020
     FM241500 07009KT 1 1/2SM SHRA OVC020
     FM242300 13009KT 1 1/2SM SHRA OVC008
     FM250300 16013KT 1 1/2SM SHRA OVC003 WS020/20035KT
     FM250500 20016G26KT 4SM SHRA OVC015 WS020/23055KT=

USA.gov is the U.S. government's official web portal to all federal, state and local government web resources and services.